GCTSGCFV

Guest
Details From GCTS - Tenerife Sur
To GCFV - Fuerteventura
Flight Number -
Tags Generated
Created
Modified
Stats Distance 146 nm / 270 km
Max Altitude 0 ft / 0 m
Waypoints 2
Social Downloads 2
Likes 0
Share VATSIM

Download

Looking for another format? Having issues loading an existing format? Contact us
Advertisement - Login to hide

Notes

Generated

Route

GCTS GCFV

ID Type Via Altitude Latitude Longitude Leg Dist Tot Dist Heading (true) Name
O GCTS APT - 0 ft / 0 m 28.03920˚ -16.58764˚ - 0 nm - -
O GCFV APT - 0 ft / 0 m 28.43299˚ -13.86439˚ 146 nm 146 nm 80° / 81° -

Altitude Profile

Advertisement - Login to hide

GCTS

Details ICAO GCTS (TFS)
Name Tenerife Sur
Region Canary Islands
Timezone Atlantic/Canary (UTC+1.0)
Stats Elevation 209 ft / 64 m (AMSL)
Location 28.044475° -16.572488°
Runways 1
Magnetic Variation 5.066° W

METAR

GCTS 231700Z 11008KT 080V150 9999 FEW024 BKN053 20/13 Q1018 NOSIG

Decode

TAF

TAF GCTS 231400Z 2315/2415 VRB05KT 9999 SCT035 TX26/2414Z TN18/2405Z TEMPO 2315/2318 12010KT

Decode

Departure Runways

ID Width Length Bearing (true) Bearing (mag) Surface Threshold Offset Overrun Length
08 148 ft / 45 m 10,489 ft / 3,197 m 68.47° 73.54° Asphalt 0 ft / 0 m 0 ft / 0 m
26 148 ft / 45 m 10,489 ft / 3,197 m 248.49° 253.56° Asphalt 0 ft / 0 m 0 ft / 0 m

GCFV

Details ICAO GCFV (FUE)
Name Fuerteventura
Region Canary Islands
Timezone Atlantic/Canary (UTC+1.0)
Stats Elevation 85 ft / 26 m (AMSL)
Location 28.447882° -13.864892°
Runways 2
Magnetic Variation 4.048° W

METAR

GCFV 231700Z 31015KT 280V350 9999 FEW030 22/11 Q1017

Decode

TAF

TAF TAF GCFV 231400Z 2315/2415 30010KT 9999 FEW030 TX22/2414Z TN18/2405Z BECMG 2409/2410 06010KT PROB30 TEMPO 2315/2319 30015G25KT

Decode

Destination Runways

ID Width Length Bearing (true) Bearing (mag) Surface Threshold Offset Overrun Length
01L 148 ft / 45 m 5,433 ft / 1,656 m 1.67° 5.72° Asphalt 0 ft / 0 m 984 ft / 300 m
01R 148 ft / 45 m 7,905 ft / 2,409 m 1.66° 5.71° Asphalt 0 ft / 0 m 3,281 ft / 1,000 m
19L 148 ft / 45 m 7,905 ft / 2,409 m 181.66° 185.71° Asphalt 0 ft / 0 m 197 ft / 60 m
19R 148 ft / 45 m 5,433 ft / 1,656 m 181.67° 185.72° Asphalt 0 ft / 0 m 820 ft / 250 m

Approach Navaids

Runway Type Ident Frequency Range Bearing (true) Bearing (mag) Slope Elevation
01R Localiser IFV 109.50 MHz 18 nm / 33 km 1.66° 5.71° - 64 ft / 20 m (AMSL)
01R Glidescope IFV 109.50 MHz 10 nm / 19 km 1.66° 5.71° 3.00° 85 ft / 26 m (AMSL)
01R DME IFV 109.50 MHz 18 nm / 33 km - - - 85 ft / 26 m (AMSL)

Popular Alternatives